Hlavní strana
METAR-TAF:

METAR-TAF

Letiště :

Kokkola, Finsko

zeměpisná šířka: 63-43N, zeměpisná délka: 023-09E, výška: 25 m

Aktuální stav počasí

Zpráva byla vytvořena před 31 minutami, v 02:50 UTC
vítr z různých směrů 1 kt
Teplota -27°C
Vlhkost vzduchu 75%
Tlak 1013 hPa
Viditelnost 10 km a více
Žádná oblačnost pod 1500 m, nevyskytují se cumulonimby.

METAR: EFKK 210250Z AUTO VRB01KT CAVOK M27/M30 Q1013

Čas: 05:21 (03:21 UTC)

Předpověď počasí

Zpráva byla vytvořena před 4 hodinami a 58 minutami, v 22:23 UTC
Předpověď platná od 20 v 22 UTC do 20 v 24 UTC
Severovýchodní vítr 2 kt
Viditelnost 10 km a více
Žádná oblačnost pod 1500 m, nevyskytují se cumulonimby.
Dočasný
od 20 v 22 UTC do 20 v 24 UTC
Oblačno až skoro zataženo ve výšce 100 ft
Pravděpodobnost 30%
od 20 v 22 UTC do 20 v 24 UTC
Viditelnost: 2500 m
kouřmo

TAF: EFKK 202223Z 2022/2024 04002KT CAVOK TEMPO 2022/2024 BKN001 PROB30 2022/2024 2500 BR

Stav a předpovědi počasí z více než 4 000 letišť (zprávy METAR a TAF).

Červené a žluté tečky na mapě představují dostupné meteorologické stanice.

Když kurzor umístíte na tečku, zobrazí se název stanice.

Pak kliknutím zobrazíte stav a předpověď počasí.

Chcete-li změnit mapu, kliknutím na zelené tlačítko se znaménkem +mapu přiblížíte, kliknutím na zelené tlačítko se znaménkem – mapu oddálíte a kliknutím na zelené šipky přejdete na sousední mapy.


METAR-TAF: